createdAt,value
2018-06-18T00:00:07.932Z,16.06
2018-06-18T00:02:37.997Z,16.04
2018-06-18T00:05:07.970Z,16.03
2018-06-18T00:07:39.411Z,16.01
2018-06-18T00:10:10.265Z,15.98
2018-06-18T00:12:40.159Z,15.97
2018-06-18T00:15:10.174Z,15.92
2018-06-18T00:17:40.486Z,15.84
2018-06-18T00:20:10.567Z,15.91
2018-06-18T00:22:40.765Z,15.84
2018-06-18T00:25:10.715Z,15.88
2018-06-18T00:27:40.681Z,15.93
2018-06-18T00:30:10.799Z,15.91
2018-06-18T00:32:50.331Z,15.90
2018-06-18T00:35:20.817Z,15.94
2018-06-18T00:37:50.836Z,16.01
2018-06-18T00:40:21.112Z,16.02
2018-06-18T00:42:51.228Z,16.06
2018-06-18T00:45:21.287Z,16.05
2018-06-18T00:47:51.329Z,16.04
2018-06-18T00:50:21.533Z,16.08
2018-06-18T00:52:51.570Z,16.08
2018-06-18T00:55:32.326Z,16.09
2018-06-18T01:07:14.406Z,16.06
2018-06-18T01:09:44.592Z,16.05
2018-06-18T01:12:15.103Z,16.05
2018-06-18T01:14:46.655Z,16.06
2018-06-18T01:17:16.710Z,16.06
2018-06-18T01:19:49.702Z,16.10
2018-06-18T01:22:19.672Z,16.11
2018-06-18T01:25:01.470Z,16.14
2018-06-18T01:27:31.780Z,16.08
2018-06-18T01:30:01.757Z,15.99
2018-06-18T01:32:32.021Z,15.97
2018-06-18T01:35:17.753Z,15.95
2018-06-18T01:37:48.207Z,15.96
2018-06-18T01:40:18.188Z,16.03
2018-06-18T01:42:48.492Z,16.00
2018-06-18T01:45:19.629Z,15.97
2018-06-18T01:50:38.600Z,16.05
2018-06-18T01:53:09.134Z,16.04
2018-06-18T02:01:21.011Z,16.03
2018-06-18T02:04:04.930Z,15.94
2018-06-18T02:06:35.280Z,15.87
2018-06-18T02:09:08.645Z,15.89
2018-06-18T02:14:33.034Z,15.87
2018-06-18T02:17:06.770Z,15.80
2018-06-18T02:19:37.279Z,15.81
2018-06-18T02:22:07.663Z,15.85
2018-06-18T02:24:37.943Z,15.87
2018-06-18T02:27:18.325Z,15.88
2018-06-18T02:29:53.556Z,15.90
2018-06-18T02:32:30.728Z,15.78
2018-06-18T02:35:05.794Z,15.80
2018-06-18T02:37:40.996Z,15.72
2018-06-18T02:40:16.327Z,15.68
2018-06-18T02:42:47.050Z,15.67
2018-06-18T02:45:17.210Z,15.72
2018-06-18T02:47:47.386Z,15.76
2018-06-18T02:50:17.612Z,15.76
2018-06-18T02:52:47.527Z,15.72
2018-06-18T02:55:17.463Z,15.74
2018-06-18T02:57:49.931Z,15.72
2018-06-18T03:00:19.938Z,15.78
2018-06-18T03:02:50.041Z,15.76
2018-06-18T03:05:20.571Z,15.78
2018-06-18T03:07:51.369Z,15.75
2018-06-18T03:10:38.028Z,15.69
2018-06-18T03:13:08.903Z,15.65
2018-06-18T03:15:39.434Z,15.63
2018-06-18T03:18:13.439Z,15.62
2018-06-18T03:20:51.245Z,15.55
2018-06-18T03:23:28.614Z,15.53
2018-06-18T03:26:04.146Z,15.56
2018-06-18T03:28:40.726Z,15.66
2018-06-18T03:31:11.795Z,15.65
2018-06-18T03:33:43.889Z,15.67
2018-06-18T03:36:15.418Z,15.63
2018-06-18T03:38:45.735Z,15.59
2018-06-18T03:41:17.188Z,15.61
2018-06-18T03:43:56.984Z,15.68
2018-06-18T03:46:30.742Z,15.64
2018-06-18T03:49:03.576Z,15.55
2018-06-18T03:51:33.770Z,15.56
2018-06-18T03:54:07.004Z,15.54
2018-06-18T03:56:37.207Z,15.57
2018-06-18T03:59:08.556Z,15.55
2018-06-18T04:02:03.722Z,15.54
2018-06-18T04:04:46.634Z,15.55
2018-06-18T04:07:23.433Z,15.59
2018-06-18T04:09:59.181Z,15.62
2018-06-18T04:12:29.636Z,15.68
2018-06-18T04:15:00.427Z,15.69
2018-06-18T04:17:30.698Z,15.72
2018-06-18T04:20:01.210Z,15.82
2018-06-18T04:22:31.605Z,15.75
2018-06-18T04:25:02.609Z,15.74
2018-06-18T04:27:33.044Z,15.64
2018-06-18T04:30:03.920Z,15.56
2018-06-18T04:32:35.275Z,15.54
2018-06-18T04:35:08.401Z,15.56
2018-06-18T04:37:40.111Z,15.60
2018-06-18T04:40:11.512Z,15.56
2018-06-18T04:42:47.083Z,15.58
2018-06-18T04:45:22.177Z,15.64
2018-06-18T04:47:58.521Z,15.72
2018-06-18T04:50:33.572Z,15.83
2018-06-18T04:53:03.653Z,16.03
2018-06-18T04:55:33.997Z,16.23
2018-06-18T04:58:04.264Z,16.40
2018-06-18T05:01:39.747Z,16.58
2018-06-18T05:04:09.816Z,16.73
2018-06-18T05:06:42.057Z,16.80
2018-06-18T05:10:24.521Z,16.87
2018-06-18T05:12:59.768Z,17.07
2018-06-18T05:15:35.071Z,17.09
2018-06-18T05:18:06.289Z,17.16
2018-06-18T05:20:36.747Z,17.17
2018-06-18T05:23:11.888Z,17.28
2018-06-18T05:25:42.612Z,17.27
2018-06-18T05:28:16.321Z,17.28
2018-06-18T05:30:46.425Z,17.26
2018-06-18T05:33:17.058Z,17.36
2018-06-18T05:35:47.379Z,17.36
2018-06-18T05:38:30.141Z,17.42
2018-06-18T05:41:00.875Z,17.46
2018-06-18T05:43:45.517Z,17.54
2018-06-18T05:46:16.656Z,17.60
2018-06-18T05:48:48.245Z,17.61
2018-06-18T05:51:22.730Z,17.62
2018-06-18T05:53:54.047Z,17.68
2018-06-18T05:56:24.756Z,17.61
2018-06-18T05:58:55.307Z,17.77
2018-06-18T06:01:25.824Z,17.65
2018-06-18T06:03:57.859Z,17.77
2018-06-18T06:06:28.250Z,17.84
2018-06-18T06:08:58.597Z,17.96
2018-06-18T06:11:33.885Z,17.96
2018-06-18T06:14:04.567Z,18.07
2018-06-18T06:16:34.818Z,18.04
2018-06-18T06:19:05.239Z,18.09
2018-06-18T06:21:35.474Z,18.09
2018-06-18T06:24:07.416Z,18.06
2018-06-18T06:26:37.738Z,18.19
2018-06-18T06:29:07.947Z,18.31
2018-06-18T06:31:40.442Z,18.26
2018-06-18T06:34:11.076Z,18.43
2018-06-18T06:36:41.507Z,18.41
2018-06-18T06:39:12.084Z,18.47
2018-06-18T06:41:45.365Z,18.61
2018-06-18T06:44:17.163Z,18.71
2018-06-18T06:46:47.270Z,18.90
2018-06-18T06:49:17.646Z,18.79
2018-06-18T06:51:47.973Z,18.94
2018-06-18T06:54:35.996Z,19.12
2018-06-18T06:57:07.413Z,19.12
2018-06-18T06:59:37.892Z,19.31
2018-06-18T07:02:08.854Z,19.46
2018-06-18T07:04:39.462Z,19.52
2018-06-18T07:07:09.640Z,19.36
2018-06-18T07:09:40.077Z,19.44
2018-06-18T07:12:11.798Z,19.48
2018-06-18T07:14:42.778Z,19.61
2018-06-18T07:17:13.586Z,19.51
2018-06-18T07:19:47.598Z,19.24
2018-06-18T07:22:19.460Z,19.45
2018-06-18T07:24:49.906Z,19.76
2018-06-18T07:27:21.099Z,20.00
2018-06-18T07:29:52.191Z,20.00
2018-06-18T07:32:22.660Z,20.18
2018-06-18T07:35:00.056Z,20.20
2018-06-18T07:37:31.869Z,20.04
2018-06-18T07:40:02.693Z,20.14
2018-06-18T07:42:35.523Z,20.36
2018-06-18T07:45:06.331Z,19.99
2018-06-18T07:47:40.189Z,19.76
2018-06-18T07:50:14.769Z,19.99
2018-06-18T07:52:45.023Z,20.18
2018-06-18T07:55:15.464Z,20.02
2018-06-18T07:57:46.335Z,20.03
2018-06-18T08:00:17.748Z,20.08
2018-06-18T08:02:48.321Z,20.23
2018-06-18T08:05:19.167Z,20.53
2018-06-18T08:07:49.279Z,20.75
2018-06-18T08:10:20.315Z,20.87
2018-06-18T08:12:51.802Z,20.94
2018-06-18T08:15:22.836Z,20.79
2018-06-18T08:17:55.725Z,20.90
2018-06-18T08:20:25.816Z,20.46
2018-06-18T08:22:56.037Z,20.36
2018-06-18T08:25:26.796Z,20.58
2018-06-18T08:27:57.347Z,20.87
2018-06-18T08:30:27.506Z,21.07
2018-06-18T08:32:59.793Z,20.70
2018-06-18T08:35:30.255Z,20.86
2018-06-18T08:38:00.652Z,20.84
2018-06-18T08:40:30.837Z,20.93
2018-06-18T08:43:01.022Z,21.12
2018-06-18T08:45:31.471Z,21.67
2018-06-18T08:48:03.059Z,22.64
2018-06-18T08:50:39.254Z,23.37
2018-06-18T08:53:14.858Z,24.90
2018-06-18T08:55:50.570Z,26.08
2018-06-18T08:58:28.491Z,25.47
2018-06-18T09:01:05.385Z,23.88
2018-06-18T09:03:40.752Z,23.39
2018-06-18T09:06:11.009Z,22.66
2018-06-18T09:08:46.083Z,22.82
2018-06-18T09:11:27.502Z,22.37
2018-06-18T09:13:59.668Z,23.10
2018-06-18T09:16:37.427Z,24.60
2018-06-18T09:19:07.825Z,24.77
2018-06-18T09:21:38.075Z,25.07
2018-06-18T09:24:09.344Z,25.29
2018-06-18T09:26:42.206Z,25.05
2018-06-18T09:29:12.365Z,23.66
2018-06-18T09:31:47.736Z,22.67
2018-06-18T09:34:18.239Z,23.41
2018-06-18T09:36:48.378Z,25.03
2018-06-18T09:39:18.496Z,26.44
2018-06-18T09:41:51.030Z,27.84
2018-06-18T09:44:21.180Z,27.91
2018-06-18T09:46:52.281Z,27.55
2018-06-18T09:49:30.148Z,26.82
2018-06-18T09:52:07.192Z,28.23
2018-06-18T09:54:45.442Z,28.42
2018-06-18T09:57:27.678Z,27.82
2018-06-18T10:00:03.211Z,27.48
2018-06-18T10:02:35.198Z,26.20
2018-06-18T10:05:08.359Z,25.00
2018-06-18T10:07:38.435Z,24.36
2018-06-18T10:10:08.576Z,23.59
2018-06-18T10:12:40.344Z,23.74
2018-06-18T10:15:11.279Z,25.60
2018-06-18T10:17:41.642Z,26.20
2018-06-18T10:20:11.961Z,26.96
2018-06-18T10:22:42.865Z,28.01
2018-06-18T10:25:14.281Z,28.54
2018-06-18T10:27:44.492Z,28.36
2018-06-18T10:30:15.617Z,28.64
2018-06-18T10:32:52.156Z,28.79
2018-06-18T10:35:27.315Z,28.80
2018-06-18T10:38:03.484Z,29.54
2018-06-18T10:40:38.728Z,29.95
2018-06-18T10:43:26.577Z,30.02
2018-06-18T10:45:59.818Z,30.26
2018-06-18T10:48:32.871Z,29.86
2018-06-18T10:51:03.964Z,28.21
2018-06-18T10:53:34.093Z,27.06
2018-06-18T10:56:06.368Z,25.80
2018-06-18T10:58:36.587Z,25.15
2018-06-18T11:01:10.805Z,24.76
2018-06-18T11:03:42.724Z,24.27
2018-06-18T11:06:24.416Z,24.86
2018-06-18T11:08:54.896Z,24.79
2018-06-18T11:11:25.067Z,24.73
2018-06-18T11:13:55.161Z,24.99
2018-06-18T11:16:25.891Z,25.22
2018-06-18T11:19:00.996Z,25.26
2018-06-18T11:21:36.066Z,26.48
2018-06-18T11:24:11.536Z,27.00
2018-06-18T11:26:47.005Z,25.52
2018-06-18T11:29:17.239Z,26.17
2018-06-18T11:31:47.467Z,27.60
2018-06-18T11:34:17.693Z,27.19
2018-06-18T11:36:47.825Z,27.27
2018-06-18T11:39:18.349Z,27.59
2018-06-18T11:41:48.652Z,27.01
2018-06-18T11:44:19.779Z,27.81
2018-06-18T11:46:55.555Z,28.47
2018-06-18T11:49:25.584Z,27.94
2018-06-18T11:51:55.620Z,26.83
2018-06-18T11:54:25.931Z,25.79
2018-06-18T11:56:56.212Z,25.14
2018-06-18T11:59:31.214Z,24.84
2018-06-18T12:02:06.811Z,25.67
2018-06-18T12:04:41.819Z,28.78
2018-06-18T12:07:18.285Z,31.13
2018-06-18T12:09:49.625Z,31.96
2018-06-18T12:12:19.779Z,30.27
2018-06-18T12:14:50.116Z,28.42
2018-06-18T12:17:21.182Z,27.19
2018-06-18T12:19:51.333Z,26.74
2018-06-18T12:22:22.838Z,26.36
2018-06-18T12:24:53.068Z,26.19
2018-06-18T12:27:26.275Z,25.78
2018-06-18T12:29:56.700Z,26.23
2018-06-18T12:32:26.859Z,27.28
2018-06-18T12:35:01.649Z,27.16
2018-06-18T12:37:36.519Z,25.49
2018-06-18T12:40:09.610Z,24.77
2018-06-18T12:42:41.055Z,24.52
2018-06-18T12:45:17.632Z,24.52
2018-06-18T12:47:57.343Z,24.85
2018-06-18T12:50:32.392Z,25.14
2018-06-18T12:53:09.043Z,25.20
2018-06-18T12:55:44.219Z,24.93
2018-06-18T12:58:15.012Z,24.88
2018-06-18T13:00:45.674Z,24.95
2018-06-18T13:03:17.026Z,24.92
2018-06-18T13:05:49.989Z,24.59
2018-06-18T13:08:30.634Z,24.24
2018-06-18T13:11:03.450Z,24.29
2018-06-18T13:13:33.590Z,24.77
2018-06-18T13:16:03.876Z,25.59
2018-06-18T13:18:34.275Z,26.38
2018-06-18T13:21:04.939Z,26.47
2018-06-18T13:23:35.096Z,26.32
2018-06-18T13:26:06.680Z,26.01
2018-06-18T13:28:36.850Z,25.92
2018-06-18T13:31:07.078Z,25.63
2018-06-18T13:33:37.576Z,25.45
2018-06-18T13:36:07.866Z,25.98
2018-06-18T13:38:43.032Z,26.56
2018-06-18T13:41:18.368Z,26.78
2018-06-18T13:43:54.363Z,26.65
2018-06-18T13:46:29.773Z,26.49
2018-06-18T13:48:59.958Z,26.60
2018-06-18T13:51:30.033Z,26.63
2018-06-18T13:54:01.810Z,26.42
2018-06-18T13:56:32.000Z,26.06
2018-06-18T13:59:02.565Z,26.56
2018-06-18T14:01:32.735Z,27.69
2018-06-18T14:04:02.962Z,28.22
2018-06-18T14:06:34.434Z,28.38
2018-06-18T14:09:05.293Z,27.38
2018-06-18T14:11:35.893Z,26.93
2018-06-18T14:14:06.473Z,27.62
2018-06-18T14:16:37.804Z,28.27
2018-06-18T14:19:12.993Z,28.58
2018-06-18T14:21:46.759Z,28.14
2018-06-18T14:24:18.000Z,28.94
2018-06-18T14:26:48.478Z,29.81
2018-06-18T14:29:23.934Z,30.37
2018-06-18T14:31:56.402Z,32.56
2018-06-18T14:34:31.852Z,32.90
2018-06-18T14:37:07.776Z,31.61
2018-06-18T14:39:43.569Z,30.44
2018-06-18T14:42:13.766Z,29.94
2018-06-18T14:44:44.014Z,29.77
2018-06-18T14:47:15.686Z,29.77
2018-06-18T14:49:45.743Z,30.03
2018-06-18T14:52:15.868Z,28.54
2018-06-18T14:54:47.229Z,27.57
2018-06-18T14:57:17.367Z,29.21
2018-06-18T14:59:53.283Z,29.82
2018-06-18T15:02:23.766Z,30.89
2018-06-18T15:04:53.934Z,31.33
2018-06-18T15:07:24.096Z,30.72
2018-06-18T15:09:54.480Z,30.82
2018-06-18T15:12:26.090Z,31.39
2018-06-18T15:15:01.207Z,31.89
2018-06-18T15:17:33.013Z,32.46
2018-06-18T15:20:03.686Z,33.11
2018-06-18T15:22:34.282Z,33.25
2018-06-18T15:25:12.117Z,33.40
2018-06-18T15:27:42.377Z,32.68
2018-06-18T15:30:13.376Z,32.60
2018-06-18T15:32:43.933Z,33.12
2018-06-18T15:35:14.180Z,32.17
2018-06-18T15:37:45.687Z,29.98
2018-06-18T15:40:16.117Z,28.52
2018-06-18T15:42:46.269Z,27.33
2018-06-18T15:45:16.660Z,26.64
2018-06-18T15:47:46.977Z,26.42
2018-06-18T15:50:17.042Z,26.20
2018-06-18T15:52:47.918Z,25.95
2018-06-18T15:55:18.091Z,26.03
2018-06-18T15:57:48.323Z,26.00
2018-06-18T16:00:20.805Z,25.99
2018-06-18T16:02:51.021Z,26.12
2018-06-18T16:05:21.435Z,25.90
2018-06-18T16:07:52.725Z,25.84
2018-06-18T16:10:22.958Z,25.77
2018-06-18T16:12:52.987Z,25.63
2018-06-18T16:15:24.462Z,25.64
2018-06-18T16:17:55.592Z,25.65
2018-06-18T16:20:25.911Z,25.65
2018-06-18T16:22:57.751Z,25.71
2018-06-18T16:25:27.986Z,25.70
2018-06-18T16:27:58.105Z,25.62
2018-06-18T16:30:29.097Z,25.60
2018-06-18T16:32:59.363Z,25.39
2018-06-18T16:35:30.412Z,25.26
2018-06-18T16:38:01.005Z,25.31
2018-06-18T16:40:31.513Z,25.27
2018-06-18T16:43:01.885Z,24.88
2018-06-18T16:45:36.689Z,24.54
2018-06-18T16:48:06.946Z,24.60
2018-06-18T16:50:37.442Z,24.22
2018-06-18T16:53:09.200Z,23.99
2018-06-18T16:55:39.468Z,23.76
2018-06-18T16:58:09.971Z,23.57
2018-06-18T17:00:42.145Z,23.55
2018-06-18T17:03:12.245Z,23.35
2018-06-18T17:05:42.510Z,23.44
2018-06-18T17:08:16.976Z,23.44
2018-06-18T17:10:47.076Z,23.40
2018-06-18T17:13:17.262Z,23.50
2018-06-18T17:15:49.008Z,23.50
2018-06-18T17:18:20.374Z,23.50
2018-06-18T17:20:55.703Z,23.06
2018-06-18T17:23:26.749Z,23.16
2018-06-18T17:25:57.552Z,23.13
2018-06-18T17:28:28.480Z,22.91
2018-06-18T17:30:59.424Z,22.82
2018-06-18T17:33:29.545Z,22.94
2018-06-18T17:35:59.776Z,23.12
2018-06-18T17:38:31.472Z,23.16
2018-06-18T17:41:02.919Z,23.19
2018-06-18T17:43:33.073Z,22.94
2018-06-18T17:46:04.686Z,22.91
2018-06-18T17:48:34.973Z,22.80
2018-06-18T17:51:05.582Z,22.66
2018-06-18T17:53:36.034Z,22.53
2018-06-18T17:56:07.405Z,22.52
2018-06-18T17:58:37.660Z,22.35
2018-06-18T18:01:18.309Z,22.21
2018-06-18T18:03:48.500Z,22.03
2018-06-18T18:06:20.105Z,21.97
2018-06-18T18:08:51.806Z,21.94
2018-06-18T18:11:57.603Z,21.91
2018-06-18T18:14:29.825Z,21.80
2018-06-18T18:17:04.139Z,21.86
2018-06-18T18:19:34.588Z,21.61
2018-06-18T18:22:05.575Z,21.52
2018-06-18T18:24:37.780Z,21.44
2018-06-18T18:27:11.172Z,21.29
2018-06-18T18:32:34.016Z,21.17
2018-06-18T18:35:08.837Z,21.18
2018-06-18T18:37:39.151Z,21.04
2018-06-18T18:46:05.194Z,20.85
2018-06-18T18:48:35.522Z,20.92
2018-06-18T18:54:36.205Z,20.80
